Missanabie, Canada
Current Conditions -  °F | °C
As of 8:00 PM on Saturday 25 Oct 2014 (Local Time) from CYXZ Reporting Station
Broken Clouds Broken Clouds  
Wind Chill: 45°   Ceiling: 2000
Heat Index: 48°   Visibility: 15mi
Dew Point: 34°   Wind: 8mph
Humidity: 57%   Direction: 300°WNW
Pressure: 29.61"   Gusts: 18mph
Location:  48.3°N, 84.08°W
Report Text: CYXZ 260000Z 30007G16KT 270V340 15SM BKN020 09/01 A2961 RMK SC7 LAST OBS/NEXT 261100UTC SLP036
Loading
Personal Weather Stations






























Interactive Weather Map
Tropical Storm Tracking
New forecast layout! Learn more

10-Day Weather Forecast

Advertisements
Track Severe Weather on mobile